createdAt,value
2017-11-05T00:00:19.351Z,88.4
2017-11-05T00:01:19.330Z,88.49
2017-11-05T00:02:19.316Z,88.59
2017-11-05T00:03:19.280Z,88.59
2017-11-05T00:04:19.267Z,89.06
2017-11-05T00:05:19.238Z,89.06
2017-11-05T00:06:19.215Z,88.87
2017-11-05T00:07:19.199Z,88.78
2017-11-05T00:08:19.173Z,88.78
2017-11-05T00:09:19.144Z,89.06
2017-11-05T00:10:19.127Z,88.87
2017-11-05T00:11:19.100Z,89.54
2017-11-05T00:12:19.426Z,89.06
2017-11-05T00:13:19.058Z,89.35
2017-11-05T00:14:19.034Z,89.54
2017-11-05T00:15:19.005Z,89.73
2017-11-05T00:16:18.980Z,90.11
2017-11-05T00:17:18.962Z,89.83
2017-11-05T00:18:18.937Z,89.78
2017-11-05T00:19:18.915Z,89.92
2017-11-05T00:20:18.900Z,89.83
2017-11-05T00:21:18.872Z,89.88
2017-11-05T00:22:18.849Z,90.5
2017-11-05T00:23:18.824Z,90.36
2017-11-05T00:24:18.799Z,89.78
2017-11-05T00:25:18.778Z,90.73
2017-11-05T00:26:18.788Z,90.64
2017-11-05T00:27:18.413Z,90.83
2017-11-05T00:28:18.711Z,90.64
2017-11-05T00:29:18.692Z,90.93
2017-11-05T00:30:18.669Z,90.83
2017-11-05T00:31:18.641Z,90.55
2017-11-05T00:32:18.621Z,90.83
2017-11-05T00:33:18.594Z,91.02
2017-11-05T00:34:18.578Z,90.83
2017-11-05T00:35:18.557Z,90.83
2017-11-05T00:36:18.532Z,91.21
2017-11-05T00:37:18.503Z,90.93
2017-11-05T00:38:18.485Z,91.78
2017-11-05T00:39:18.466Z,91.6
2017-11-05T00:40:18.434Z,91.6
2017-11-05T00:41:18.412Z,91.5
2017-11-05T00:42:18.393Z,91.69
2017-11-05T00:43:18.368Z,91.31
2017-11-05T00:44:18.353Z,91.31
2017-11-05T00:45:18.322Z,91.6
2017-11-05T00:46:18.294Z,91.31
2017-11-05T00:47:18.273Z,91.98
2017-11-05T00:48:18.269Z,91.5
2017-11-05T00:49:18.226Z,91.5
2017-11-05T00:50:18.211Z,91.78
2017-11-05T00:51:18.200Z,91.78
2017-11-05T00:52:18.165Z,91.5
2017-11-05T00:53:18.135Z,91.69
2017-11-05T00:54:18.122Z,91.6
2017-11-05T00:55:18.093Z,91.5
2017-11-05T00:56:17.751Z,92.17
2017-11-05T00:57:18.045Z,92.46
2017-11-05T00:58:18.024Z,92.46
2017-11-05T00:59:17.997Z,92.55
2017-11-05T01:00:17.980Z,92.07
2017-11-05T01:01:17.960Z,92.26
2017-11-05T01:02:17.931Z,92.17
2017-11-05T01:03:17.912Z,92.07
2017-11-05T01:04:17.887Z,92.07
2017-11-05T01:05:17.868Z,92.07
2017-11-05T01:06:17.837Z,92.46
2017-11-05T01:07:17.825Z,92.65
2017-11-05T01:08:17.793Z,92.36
2017-11-05T01:09:17.776Z,92.26
2017-11-05T01:10:17.750Z,92.83
2017-11-05T01:11:17.726Z,92.65
2017-11-05T01:12:17.700Z,92.65
2017-11-05T01:13:17.681Z,92.65
2017-11-05T01:14:17.656Z,92.83
2017-11-05T01:15:17.637Z,92.55
2017-11-05T01:16:17.608Z,92.65
2017-11-05T01:17:17.588Z,93.22
2017-11-05T01:18:17.563Z,93.22
2017-11-05T01:19:17.542Z,93.02
2017-11-05T01:20:17.519Z,93.02
2017-11-05T01:21:17.497Z,93.12
2017-11-05T01:22:17.477Z,92.65
2017-11-05T01:23:17.457Z,92.93
2017-11-05T01:24:17.430Z,93.41
2017-11-05T01:25:17.410Z,93.79
2017-11-05T01:26:17.382Z,93.6
2017-11-05T01:27:17.360Z,93.31
2017-11-05T01:28:17.335Z,93.41
2017-11-05T01:29:17.314Z,93.12
2017-11-05T01:30:17.297Z,93.41
2017-11-05T01:31:17.269Z,93.22
2017-11-05T01:32:17.250Z,93.41
2017-11-05T01:33:17.231Z,93.31
2017-11-05T01:34:17.202Z,93.41
2017-11-05T01:35:17.178Z,93.31
2017-11-05T01:36:17.154Z,93.51
2017-11-05T01:37:17.132Z,93.31
2017-11-05T01:38:17.119Z,93.31
2017-11-05T01:39:17.088Z,93.7
2017-11-05T01:40:17.064Z,93.98
2017-11-05T01:41:17.040Z,93.79
2017-11-05T01:42:17.026Z,93.98
2017-11-05T01:43:16.990Z,94.17
2017-11-05T01:44:16.976Z,93.7
2017-11-05T01:45:16.959Z,94.27
2017-11-05T01:46:16.607Z,93.98
2017-11-05T01:47:16.902Z,94.17
2017-11-05T01:48:16.876Z,93.98
2017-11-05T01:49:17.065Z,93.88
2017-11-05T01:50:16.835Z,93.98
2017-11-05T01:51:16.814Z,93.98
2017-11-05T01:52:16.791Z,93.88
2017-11-05T01:53:16.954Z,93.79
2017-11-05T01:54:16.743Z,94.07
2017-11-05T01:55:16.729Z,93.79
2017-11-05T01:56:16.699Z,93.98
2017-11-05T01:57:16.676Z,93.79
2017-11-05T01:58:16.651Z,94.07
2017-11-05T01:59:16.631Z,93.98
2017-11-05T02:00:16.604Z,93.51
2017-11-05T02:01:16.585Z,93.88
2017-11-05T02:02:16.553Z,93.74
2017-11-05T02:03:16.534Z,93.22
2017-11-05T02:04:16.519Z,93.46
2017-11-05T02:05:16.492Z,93.41
2017-11-05T02:06:16.468Z,93.17
2017-11-05T02:07:16.447Z,93.55
2017-11-05T02:08:16.420Z,93.36
2017-11-05T02:09:16.401Z,93.36
2017-11-05T02:10:16.376Z,93.55
2017-11-05T02:11:16.351Z,93.36
2017-11-05T02:12:16.334Z,93.36
2017-11-05T02:13:16.310Z,93.36
2017-11-05T02:14:16.283Z,93.74
2017-11-05T02:15:16.258Z,93.65
2017-11-05T02:16:16.235Z,93.17
2017-11-05T02:17:16.209Z,93.17
2017-11-05T02:18:16.188Z,93.93
2017-11-05T02:19:16.169Z,93.17
2017-11-05T02:20:15.824Z,93.74
2017-11-05T02:21:16.125Z,93.93
2017-11-05T02:22:16.103Z,93.84
2017-11-05T02:23:16.073Z,93.84
2017-11-05T02:24:16.050Z,93.84
2017-11-05T02:25:16.030Z,93.84
2017-11-05T02:26:16.002Z,93.84
2017-11-05T02:27:15.980Z,93.84
2017-11-05T02:28:15.957Z,93.93
2017-11-05T02:29:15.624Z,93.84
2017-11-05T02:30:15.914Z,93.74
2017-11-05T02:31:15.886Z,93.84
2017-11-05T02:32:15.870Z,93.93
2017-11-05T02:33:15.838Z,93.84
2017-11-05T02:34:15.817Z,94.03
2017-11-05T02:35:15.794Z,93.93
2017-11-05T02:36:15.770Z,93.93
2017-11-05T02:37:15.747Z,93.84
2017-11-05T02:38:15.726Z,93.84
2017-11-05T02:39:15.701Z,94.03
2017-11-05T02:40:15.677Z,94.41
2017-11-05T02:41:15.661Z,94.6
2017-11-05T02:42:15.634Z,94.41
2017-11-05T02:43:15.616Z,94.41
2017-11-05T02:44:15.585Z,94.41
2017-11-05T02:45:15.563Z,94.22
2017-11-05T02:46:15.552Z,94.12
2017-11-05T02:47:15.517Z,94.41
2017-11-05T02:48:15.505Z,94.51
2017-11-05T02:49:15.471Z,94.51
2017-11-05T02:50:15.448Z,94.41
2017-11-05T02:51:15.430Z,94.79
2017-11-05T02:52:15.404Z,94.6
2017-11-05T02:53:15.381Z,94.7
2017-11-05T02:54:15.352Z,94.89
2017-11-05T02:55:15.336Z,94.7
2017-11-05T02:56:15.304Z,94.7
2017-11-05T02:57:15.288Z,94.93
2017-11-05T02:58:15.261Z,94.98
2017-11-05T02:59:15.241Z,95.46
2017-11-05T03:00:15.220Z,95.03
2017-11-05T03:01:15.203Z,95.32
2017-11-05T03:02:15.174Z,95.46
2017-11-05T03:03:15.146Z,95.98
2017-11-05T03:04:15.143Z,95.61
2017-11-05T03:05:15.103Z,95.41
2017-11-05T03:06:15.076Z,95.51
2017-11-05T03:07:15.056Z,95.75
2017-11-05T03:08:15.033Z,95.41
2017-11-05T03:09:15.008Z,95.37
2017-11-05T03:10:14.997Z,95.89
2017-11-05T03:11:14.961Z,95.98
2017-11-05T03:12:14.952Z,95.7
2017-11-05T03:13:14.917Z,96.22
2017-11-05T03:14:14.890Z,96.27
2017-11-05T03:15:14.869Z,96.17
2017-11-05T03:16:14.844Z,96.17
2017-11-05T03:17:14.858Z,96.08
2017-11-05T03:18:14.805Z,96.13
2017-11-05T03:19:14.774Z,96.56
2017-11-05T03:20:14.755Z,96.36
2017-11-05T03:21:14.727Z,96.75
2017-11-05T03:22:14.706Z,96.27
2017-11-05T03:23:14.696Z,97.13
2017-11-05T03:24:14.664Z,96.89
2017-11-05T03:25:14.636Z,96.65
2017-11-05T03:26:14.611Z,96.84
2017-11-05T03:27:14.272Z,97.03
2017-11-05T03:28:14.568Z,97.03
2017-11-05T03:29:14.550Z,96.94
2017-11-05T03:30:14.528Z,96.94
2017-11-05T03:31:14.179Z,97.32
2017-11-05T03:32:14.473Z,97.22
2017-11-05T03:33:14.454Z,97.51
2017-11-05T03:34:14.424Z,97.41
2017-11-05T03:35:14.411Z,97.03
2017-11-05T03:36:14.378Z,97.51
2017-11-05T03:37:14.357Z,97.7
2017-11-05T03:38:14.338Z,97.41
2017-11-05T03:39:14.307Z,97.51
2017-11-05T03:40:14.285Z,97.99
2017-11-05T03:41:14.272Z,97.61
2017-11-05T03:42:13.918Z,98.46
2017-11-05T03:43:14.213Z,98.36
2017-11-05T03:44:14.196Z,98.08
2017-11-05T03:45:14.174Z,98.27
2017-11-05T03:46:14.153Z,98.18
2017-11-05T03:47:14.126Z,98.36
2017-11-05T03:48:14.101Z,98.27
2017-11-05T03:49:14.078Z,98.08
2017-11-05T03:50:14.404Z,98.56
2017-11-05T03:51:14.036Z,98.36
2017-11-05T03:52:14.007Z,98.56
2017-11-05T03:53:13.985Z,98.65
2017-11-05T03:54:13.965Z,98.65
2017-11-05T03:55:13.936Z,98.36
2017-11-05T03:56:14.267Z,99.22
2017-11-05T03:57:13.918Z,99.22
2017-11-05T03:58:13.868Z,99.22
2017-11-05T03:59:13.841Z,99.04
2017-11-05T04:00:13.824Z,99.32
2017-11-05T04:01:13.481Z,99.41
2017-11-05T04:02:13.769Z,99.41
2017-11-05T04:03:13.750Z,99.41
2017-11-05T04:04:13.746Z,99.32
2017-11-05T04:05:13.704Z,99.22
2017-11-05T04:06:13.682Z,99.51
2017-11-05T04:07:13.657Z,99.6
2017-11-05T04:08:13.638Z,99.41
2017-11-05T04:09:13.615Z,99.51
2017-11-05T04:10:13.589Z,99.99
2017-11-05T04:11:13.566Z,99.8
2017-11-05T04:12:13.541Z,99.99
2017-11-05T04:13:13.522Z,99.99
2017-11-05T04:14:13.499Z,99.99
2017-11-05T04:15:13.473Z,99.89
2017-11-05T04:16:13.451Z,99.8
2017-11-05T04:17:13.455Z,99.99
2017-11-05T04:18:13.406Z,99.8
2017-11-05T04:19:13.376Z,99.89
2017-11-05T04:20:13.360Z,99.99
2017-11-05T04:21:13.333Z,99.99
2017-11-05T04:22:13.309Z,99.99
2017-11-05T04:23:13.284Z,99.99
2017-11-05T04:24:13.590Z,99.99
2017-11-05T04:25:13.238Z,99.99
2017-11-05T04:26:13.216Z,99.99
2017-11-05T04:27:13.200Z,99.99
2017-11-05T04:28:13.517Z,99.99
2017-11-05T04:29:13.145Z,99.99
2017-11-05T04:30:13.121Z,99.99
2017-11-05T04:31:13.103Z,99.99
2017-11-05T04:32:13.375Z,99.99
2017-11-05T04:33:13.051Z,99.99
2017-11-05T04:34:13.032Z,99.99
2017-11-05T04:35:13.033Z,99.99
2017-11-05T04:36:12.980Z,99.99
2017-11-05T04:37:13.313Z,99.99
2017-11-05T04:38:12.939Z,99.99
2017-11-05T04:39:12.911Z,99.99
2017-11-05T04:40:12.913Z,99.99
2017-11-05T04:41:12.870Z,99.99
2017-11-05T04:42:12.841Z,99.99
2017-11-05T04:43:12.822Z,99.99
2017-11-05T04:44:12.793Z,99.99
2017-11-05T04:45:12.776Z,99.99
2017-11-05T04:46:12.755Z,99.99
2017-11-05T04:47:12.732Z,99.99
2017-11-05T04:48:12.701Z,99.99
2017-11-05T04:49:12.684Z,99.99
2017-11-05T04:50:12.663Z,99.99
2017-11-05T04:51:12.650Z,99.99
2017-11-05T04:52:12.609Z,99.99
2017-11-05T04:53:12.590Z,99.99
2017-11-05T04:54:12.568Z,99.99
2017-11-05T04:55:12.540Z,99.99
2017-11-05T04:56:12.516Z,99.99
2017-11-05T04:57:12.496Z,99.99
2017-11-05T04:58:12.471Z,99.99
2017-11-05T04:59:12.449Z,99.99
2017-11-05T05:00:12.435Z,99.99
2017-11-05T05:01:12.398Z,99.99
2017-11-05T05:02:12.379Z,99.99
2017-11-05T05:03:12.040Z,99.99
2017-11-05T05:04:12.330Z,99.99
2017-11-05T05:05:12.304Z,99.99
2017-11-05T05:06:12.286Z,99.99
2017-11-05T05:07:12.276Z,99.99
2017-11-05T05:08:12.245Z,99.99
2017-11-05T05:09:12.213Z,99.99
2017-11-05T05:10:12.211Z,99.99
2017-11-05T05:11:12.169Z,99.99
2017-11-05T05:12:12.156Z,99.99
2017-11-05T05:13:12.123Z,99.99
2017-11-05T05:14:12.098Z,99.99
2017-11-05T05:15:12.075Z,99.99
2017-11-05T05:16:12.051Z,99.99
2017-11-05T05:17:12.046Z,99.99
2017-11-05T05:18:12.003Z,99.99
2017-11-05T05:19:11.660Z,99.99
2017-11-05T05:20:11.965Z,99.99
2017-11-05T05:21:11.938Z,99.99
2017-11-05T05:22:11.918Z,99.99
2017-11-05T05:23:11.897Z,99.99
2017-11-05T05:24:11.864Z,99.99
2017-11-05T05:25:11.842Z,99.99
2017-11-05T05:26:11.823Z,99.99
2017-11-05T05:27:11.796Z,99.99
2017-11-05T05:28:11.778Z,99.99
2017-11-05T05:29:11.748Z,99.99
2017-11-05T05:30:11.727Z,99.99
2017-11-05T05:31:11.694Z,99.99
2017-11-05T05:32:11.680Z,99.99
2017-11-05T05:33:11.656Z,99.99
2017-11-05T05:34:11.633Z,99.99
2017-11-05T05:35:11.288Z,99.99
2017-11-05T05:36:11.583Z,99.99
2017-11-05T05:37:11.564Z,99.99
2017-11-05T05:38:11.541Z,99.99
2017-11-05T05:39:11.511Z,99.99
2017-11-05T05:40:11.494Z,99.99
2017-11-05T05:41:11.475Z,99.99
2017-11-05T05:42:11.126Z,99.99
2017-11-05T05:43:11.416Z,99.99
2017-11-05T05:44:11.397Z,99.99
2017-11-05T05:45:11.374Z,99.99
2017-11-05T05:46:11.349Z,99.99
2017-11-05T05:47:11.330Z,99.99
2017-11-05T05:48:11.300Z,99.99
2017-11-05T05:49:11.277Z,99.99
2017-11-05T05:50:11.258Z,99.99
2017-11-05T05:51:11.233Z,99.99
2017-11-05T05:52:11.207Z,99.99
2017-11-05T05:53:11.186Z,99.99
2017-11-05T05:54:11.162Z,99.99
2017-11-05T05:55:11.138Z,99.99
2017-11-05T05:56:11.117Z,99.99
2017-11-05T05:57:11.097Z,99.99
2017-11-05T05:58:11.066Z,99.99
2017-11-05T05:59:11.059Z,99.99
2017-11-05T06:00:11.020Z,99.99
2017-11-05T06:01:10.997Z,99.99
2017-11-05T06:02:10.975Z,99.99
2017-11-05T06:03:10.952Z,99.99
2017-11-05T06:04:10.935Z,99.99
2017-11-05T06:05:10.904Z,99.99
2017-11-05T06:06:10.881Z,99.99
2017-11-05T06:07:10.892Z,99.99
2017-11-05T06:08:10.514Z,99.99
2017-11-05T06:09:10.826Z,99.99
2017-11-05T06:10:10.790Z,99.99
2017-11-05T06:11:10.766Z,99.99
2017-11-05T06:12:10.744Z,99.99
2017-11-05T06:13:10.716Z,99.99
2017-11-05T06:14:10.699Z,99.99
2017-11-05T06:15:10.672Z,99.99
2017-11-05T06:16:10.647Z,99.99
2017-11-05T06:17:10.621Z,99.99
2017-11-05T06:18:10.596Z,99.99
2017-11-05T06:19:10.577Z,99.99
2017-11-05T06:20:10.550Z,99.99
2017-11-05T06:21:10.206Z,99.99
2017-11-05T06:22:10.504Z,99.99
2017-11-05T06:23:10.482Z,99.99
2017-11-05T06:24:10.459Z,99.99
2017-11-05T06:25:10.433Z,99.99
2017-11-05T06:26:10.410Z,99.99
2017-11-05T06:27:10.394Z,99.99
2017-11-05T06:28:10.361Z,99.99
2017-11-05T06:29:10.023Z,99.99
2017-11-05T06:30:10.329Z,99.99
2017-11-05T06:31:10.292Z,99.99
2017-11-05T06:32:10.289Z,99.99
2017-11-05T06:33:10.258Z,99.99
2017-11-05T06:34:10.221Z,99.99
2017-11-05T06:35:09.881Z,99.99
2017-11-05T06:36:10.175Z,99.99
2017-11-05T06:37:10.155Z,99.99
2017-11-05T06:38:10.128Z,99.99
2017-11-05T06:39:10.100Z,99.99
2017-11-05T06:40:10.081Z,99.99
2017-11-05T06:41:10.053Z,99.99
2017-11-05T06:42:10.033Z,99.99
2017-11-05T06:43:09.685Z,99.99
2017-11-05T06:44:09.983Z,99.99
2017-11-05T06:45:09.961Z,99.99
2017-11-05T06:46:09.944Z,99.99
2017-11-05T06:47:09.589Z,99.99
2017-11-05T06:48:09.888Z,99.99
2017-11-05T06:49:09.892Z,99.99
2017-11-05T06:50:09.843Z,99.99
2017-11-05T06:51:09.820Z,99.99
2017-11-05T06:52:09.794Z,99.99
2017-11-05T06:53:09.774Z,99.99
2017-11-05T06:54:09.746Z,99.99
2017-11-05T06:55:09.724Z,99.99
2017-11-05T06:56:09.700Z,99.99
2017-11-05T06:57:09.673Z,99.99
2017-11-05T06:58:09.661Z,99.99
2017-11-05T06:59:09.637Z,99.99
2017-11-05T07:00:09.635Z,99.99
2017-11-05T07:01:09.593Z,99.99
2017-11-05T07:02:09.555Z,99.99
2017-11-05T07:03:09.690Z,99.99
2017-11-05T07:04:09.513Z,99.99
2017-11-05T07:05:09.480Z,99.99
2017-11-05T07:06:09.462Z,99.99
2017-11-05T07:07:09.551Z,99.99
2017-11-05T07:08:09.421Z,99.99
2017-11-05T07:09:09.441Z,99.99
2017-11-05T07:10:09.383Z,99.99
2017-11-05T07:11:09.344Z,99.99
2017-11-05T07:12:09.324Z,99.99
2017-11-05T07:13:09.303Z,99.99
2017-11-05T07:14:09.265Z,99.99
2017-11-05T07:15:09.252Z,99.99
2017-11-05T07:16:09.231Z,99.99
2017-11-05T07:17:09.200Z,99.99
2017-11-05T07:18:09.181Z,99.99
2017-11-05T07:19:09.155Z,99.99
2017-11-05T07:20:09.136Z,99.99
2017-11-05T07:21:09.112Z,99.99
2017-11-05T07:22:09.082Z,99.99
2017-11-05T07:23:09.067Z,99.99
2017-11-05T07:24:09.036Z,99.99
2017-11-05T07:25:09.006Z,99.99
2017-11-05T07:26:08.995Z,99.99
2017-11-05T07:27:08.962Z,99.99
2017-11-05T07:28:08.623Z,99.99
2017-11-05T07:29:08.923Z,99.99
2017-11-05T07:30:08.900Z,99.99
2017-11-05T07:31:08.867Z,99.99
2017-11-05T07:32:08.861Z,99.99
2017-11-05T07:33:08.829Z,99.99
2017-11-05T07:34:08.798Z,99.99
2017-11-05T07:35:08.773Z,99.99
2017-11-05T07:36:08.768Z,99.99
2017-11-05T07:37:08.727Z,99.99
2017-11-05T07:38:08.383Z,99.99
2017-11-05T07:39:08.366Z,99.99
2017-11-05T07:40:08.666Z,99.99
2017-11-05T07:41:08.649Z,99.99
2017-11-05T07:42:08.610Z,99.99
2017-11-05T07:43:08.589Z,99.99
2017-11-05T07:44:08.569Z,99.99
2017-11-05T07:45:08.544Z,99.99
2017-11-05T07:46:08.523Z,99.99
2017-11-05T07:47:08.507Z,99.99
2017-11-05T07:48:08.472Z,99.99
2017-11-05T07:49:08.449Z,99.99
2017-11-05T07:50:08.424Z,99.99
2017-11-05T07:51:08.398Z,99.99
2017-11-05T07:52:08.374Z,99.99
2017-11-05T07:53:08.352Z,99.99
2017-11-05T07:54:08.344Z,99.99
2017-11-05T07:55:08.302Z,99.99
2017-11-05T07:56:08.278Z,99.99
2017-11-05T07:57:08.265Z,99.99
2017-11-05T07:58:08.230Z,99.99
2017-11-05T07:59:08.209Z,99.99
2017-11-05T08:00:08.187Z,99.99
2017-11-05T08:01:08.174Z,99.99
2017-11-05T08:02:08.165Z,99.99
2017-11-05T08:03:08.112Z,99.99
2017-11-05T08:04:08.084Z,99.99
2017-11-05T08:05:08.070Z,99.99
2017-11-05T08:06:08.044Z,99.99
2017-11-05T08:07:08.019Z,99.99
2017-11-05T08:08:08.006Z,99.99
2017-11-05T08:09:07.649Z,99.99
2017-11-05T08:10:07.626Z,99.99
2017-11-05T08:11:07.610Z,99.99
2017-11-05T08:12:07.586Z,99.99
2017-11-05T08:13:07.556Z,99.99
2017-11-05T08:14:07.862Z,99.99
2017-11-05T08:15:07.824Z,99.99
2017-11-05T08:16:07.804Z,99.99
2017-11-05T08:17:07.781Z,99.99
2017-11-05T08:18:07.755Z,99.99
2017-11-05T08:19:07.731Z,99.99
2017-11-05T08:20:07.708Z,99.99
2017-11-05T08:21:07.681Z,99.99
2017-11-05T08:22:07.369Z,99.99
2017-11-05T08:23:07.633Z,99.99
2017-11-05T08:24:07.617Z,99.99
2017-11-05T08:25:07.594Z,99.99
2017-11-05T08:26:07.565Z,99.99
2017-11-05T08:27:07.540Z,99.99
2017-11-05T08:28:07.511Z,99.99
2017-11-05T08:29:07.492Z,99.99
2017-11-05T08:30:07.466Z,99.99
2017-11-05T08:31:07.476Z,99.99
2017-11-05T08:32:07.100Z,99.99
2017-11-05T08:33:07.106Z,99.99
2017-11-05T08:34:07.372Z,99.99
2017-11-05T08:35:07.350Z,99.99
2017-11-05T08:36:07.323Z,99.99
2017-11-05T08:37:07.304Z,99.99
2017-11-05T08:38:07.273Z,99.99
2017-11-05T08:39:07.258Z,99.99
2017-11-05T08:40:07.235Z,99.99
2017-11-05T08:41:07.207Z,99.99
2017-11-05T08:42:07.180Z,99.99
2017-11-05T08:43:07.154Z,99.99
2017-11-05T08:44:07.128Z,99.99
2017-11-05T08:45:07.112Z,99.99
2017-11-05T08:46:07.091Z,99.99
2017-11-05T08:47:07.062Z,99.99
2017-11-05T08:48:07.046Z,99.99
2017-11-05T08:49:07.010Z,99.99
2017-11-05T08:50:06.990Z,99.99
2017-11-05T08:51:06.974Z,99.99
2017-11-05T08:52:06.941Z,99.99
2017-11-05T08:53:06.913Z,99.99
2017-11-05T08:54:06.892Z,99.99
2017-11-05T08:55:06.867Z,99.99
2017-11-05T08:56:06.841Z,99.99
2017-11-05T08:57:06.823Z,99.99
2017-11-05T08:58:06.797Z,99.99
2017-11-05T08:59:06.780Z,99.99
2017-11-05T09:00:06.751Z,99.99
2017-11-05T09:01:06.755Z,99.99
2017-11-05T09:02:06.699Z,99.99
2017-11-05T09:03:06.680Z,99.99
2017-11-05T09:04:06.651Z,99.99
2017-11-05T09:05:06.631Z,99.99
2017-11-05T09:06:06.598Z,99.99
2017-11-05T09:07:06.588Z,99.99
2017-11-05T09:08:06.557Z,99.99
2017-11-05T09:09:06.546Z,99.99
2017-11-05T09:10:06.511Z,99.99
2017-11-05T09:11:06.482Z,99.99
2017-11-05T09:12:06.458Z,99.99
2017-11-05T09:13:06.454Z,99.99
2017-11-05T09:14:06.417Z,99.99
2017-11-05T09:15:06.395Z,99.99
2017-11-05T09:16:06.369Z,99.99
2017-11-05T09:17:06.343Z,99.99
2017-11-05T09:18:06.313Z,99.99
2017-11-05T09:19:06.292Z,99.99
2017-11-05T09:20:06.275Z,99.99
2017-11-05T09:21:06.249Z,99.99
2017-11-05T09:22:06.227Z,99.99
2017-11-05T09:23:06.201Z,99.99
2017-11-05T09:24:06.174Z,99.99
2017-11-05T09:25:06.151Z,99.99
2017-11-05T09:26:06.125Z,99.99
2017-11-05T09:27:06.107Z,99.99
2017-11-05T09:28:06.088Z,99.99
2017-11-05T09:29:06.056Z,99.99
2017-11-05T09:30:06.036Z,99.99
2017-11-05T09:31:06.011Z,99.99
2017-11-05T09:32:05.665Z,99.99
2017-11-05T09:33:05.961Z,99.99
2017-11-05T09:34:05.971Z,99.99
2017-11-05T09:35:05.925Z,99.99
2017-11-05T09:36:05.569Z,99.99
2017-11-05T09:37:05.867Z,99.99
2017-11-05T09:38:06.175Z,99.99
2017-11-05T09:39:05.830Z,99.99
2017-11-05T09:40:05.798Z,99.99
2017-11-05T09:41:05.774Z,99.99
2017-11-05T09:42:05.428Z,99.99
2017-11-05T09:43:05.722Z,99.99
2017-11-05T09:44:05.702Z,99.99
2017-11-05T09:45:05.689Z,99.99
2017-11-05T09:46:05.598Z,99.99
2017-11-05T09:47:05.637Z,99.99
2017-11-05T09:48:05.606Z,99.99
2017-11-05T09:49:05.591Z,99.99
2017-11-05T09:50:05.561Z,99.99
2017-11-05T09:51:05.543Z,99.99
2017-11-05T09:52:05.519Z,99.99
2017-11-05T09:53:05.497Z,99.99
2017-11-05T09:54:05.472Z,99.99
2017-11-05T09:55:05.451Z,99.99
2017-11-05T09:56:05.416Z,99.99
2017-11-05T09:57:05.077Z,99.99
2017-11-05T09:58:05.382Z,99.99
2017-11-05T09:59:05.373Z,99.99
2017-11-05T10:00:05.326Z,99.93
2017-11-05T10:01:05.300Z,99.99
2017-11-05T10:02:05.288Z,99.99
2017-11-05T10:03:05.246Z,99.99
2017-11-05T10:04:05.235Z,99.93
2017-11-05T10:05:05.202Z,99.84
2017-11-05T10:06:05.183Z,99.99
2017-11-05T10:07:05.158Z,99.99
2017-11-05T10:08:04.815Z,99.99
2017-11-05T10:09:05.113Z,99.93
2017-11-05T10:10:05.107Z,99.84
2017-11-05T10:11:05.060Z,99.99
2017-11-05T10:12:05.040Z,99.93
2017-11-05T10:13:05.019Z,99.46
2017-11-05T10:14:04.996Z,99.46
2017-11-05T10:15:04.977Z,99.46
2017-11-05T10:16:04.628Z,99.99
2017-11-05T10:17:04.929Z,99.36
2017-11-05T10:18:04.898Z,99.65
2017-11-05T10:19:04.879Z,99.84
2017-11-05T10:20:04.531Z,99.74
2017-11-05T10:21:04.847Z,99.84
2017-11-05T10:22:04.808Z,99.93
2017-11-05T10:23:04.781Z,99.84
2017-11-05T10:24:04.760Z,99.93
2017-11-05T10:25:04.415Z,99.55
2017-11-05T10:26:04.396Z,99.27
2017-11-05T10:27:04.685Z,99.46
2017-11-05T10:28:04.665Z,99.17
2017-11-05T10:29:04.635Z,99.17
2017-11-05T10:30:04.623Z,98.88
2017-11-05T10:31:04.276Z,98.79
2017-11-05T10:32:04.567Z,99.08
2017-11-05T10:33:04.548Z,99.27
2017-11-05T10:34:04.518Z,99.17
2017-11-05T10:35:04.495Z,98.79
2017-11-05T10:36:04.477Z,98.5
2017-11-05T10:37:04.457Z,98.5
2017-11-05T10:38:04.456Z,98.5
2017-11-05T10:39:04.400Z,98.22
2017-11-05T10:40:04.380Z,98.32
2017-11-05T10:41:04.368Z,98.32
2017-11-05T10:42:04.337Z,98.08
2017-11-05T10:43:04.322Z,98.36
2017-11-05T10:44:04.287Z,98.55
2017-11-05T10:45:04.263Z,97.79
2017-11-05T10:46:04.241Z,97.99
2017-11-05T10:47:04.212Z,97.79
2017-11-05T10:48:04.186Z,97.41
2017-11-05T10:49:04.192Z,97.51
2017-11-05T10:50:04.150Z,97.7
2017-11-05T10:51:04.120Z,97.6
2017-11-05T10:52:04.097Z,97.41
2017-11-05T10:53:03.758Z,97.13
2017-11-05T10:54:04.061Z,97.51
2017-11-05T10:55:04.030Z,97.41
2017-11-05T10:56:04.009Z,96.94
2017-11-05T10:57:03.986Z,96.55
2017-11-05T10:58:03.978Z,96.17
2017-11-05T10:59:03.931Z,96.17
2017-11-05T11:00:03.914Z,96.17
2017-11-05T11:01:03.562Z,95.6
2017-11-05T11:02:03.863Z,95.22
2017-11-05T11:03:03.839Z,94.84
2017-11-05T11:04:03.816Z,94.27
2017-11-05T11:05:03.797Z,94.37
2017-11-05T11:06:03.769Z,93.89
2017-11-05T11:07:03.752Z,93.98
2017-11-05T11:08:03.721Z,93.6
2017-11-05T11:09:03.709Z,93.79
2017-11-05T11:10:03.682Z,94.46
2017-11-05T11:11:03.654Z,93.98
2017-11-05T11:12:03.643Z,93.98
2017-11-05T11:13:03.290Z,93.7
2017-11-05T11:14:03.578Z,93.98
2017-11-05T11:15:03.557Z,94.08
2017-11-05T11:16:03.538Z,93.98
2017-11-05T11:17:03.516Z,93.6
2017-11-05T11:18:03.486Z,93.89
2017-11-05T11:19:03.468Z,93.7
2017-11-05T11:20:03.444Z,93.89
2017-11-05T11:21:03.454Z,93.51
2017-11-05T11:22:03.401Z,93.41
2017-11-05T11:23:03.382Z,93.79
2017-11-05T11:24:03.364Z,93.6
2017-11-05T11:25:03.325Z,93.79
2017-11-05T11:26:03.306Z,93.98
2017-11-05T11:27:03.281Z,93.89
2017-11-05T11:28:03.261Z,93.51
2017-11-05T11:29:03.231Z,93.7
2017-11-05T11:30:03.209Z,93.7
2017-11-05T11:31:03.189Z,93.32
2017-11-05T11:32:03.169Z,93.32
2017-11-05T11:33:03.151Z,93.22
2017-11-05T11:34:03.126Z,93.41
2017-11-05T11:35:03.104Z,93.22
2017-11-05T11:36:03.081Z,93.51
2017-11-05T11:37:03.060Z,93.32
2017-11-05T11:38:02.710Z,93.22
2017-11-05T11:39:03.003Z,93.03
2017-11-05T11:40:02.987Z,93.41
2017-11-05T11:41:02.957Z,93.03
2017-11-05T11:42:02.938Z,93.79
2017-11-05T11:43:02.594Z,93.51
2017-11-05T11:44:02.889Z,93.89
2017-11-05T11:45:02.870Z,93.79
2017-11-05T11:46:02.844Z,93.51
2017-11-05T11:47:02.827Z,93.79
2017-11-05T11:48:02.803Z,93.89
2017-11-05T11:49:02.784Z,93.79
2017-11-05T11:50:02.755Z,93.79
2017-11-05T11:51:02.724Z,93.6
2017-11-05T11:52:02.707Z,94.17
2017-11-05T11:53:02.687Z,94.08
2017-11-05T11:54:02.660Z,93.98
2017-11-05T11:55:02.640Z,93.89
2017-11-05T11:56:02.617Z,93.7
2017-11-05T11:57:02.596Z,94.08
2017-11-05T11:58:02.573Z,93.13
2017-11-05T11:59:02.551Z,93.03
2017-11-05T12:00:02.527Z,93.13
2017-11-05T12:01:02.498Z,93.79
2017-11-05T12:02:02.486Z,93.03
2017-11-05T12:03:02.460Z,93.41
2017-11-05T12:04:02.429Z,93.13
2017-11-05T12:05:02.411Z,93.89
2017-11-05T12:06:02.380Z,93.41
2017-11-05T12:07:02.038Z,93.41
2017-11-05T12:08:02.340Z,93.89
2017-11-05T12:09:02.318Z,93.32
2017-11-05T12:10:02.296Z,93.22
2017-11-05T12:11:02.270Z,93.03
2017-11-05T12:12:02.251Z,93.41
2017-11-05T12:13:02.223Z,93.32
2017-11-05T12:14:02.199Z,93.13
2017-11-05T12:15:02.176Z,93.13
2017-11-05T12:16:02.155Z,93.03
2017-11-05T12:17:01.811Z,93.22
2017-11-05T12:18:02.116Z,93.22
2017-11-05T12:19:02.090Z,93.41
2017-11-05T12:20:02.058Z,93.13
2017-11-05T12:21:01.723Z,93.22
2017-11-05T12:22:01.696Z,92.65
2017-11-05T12:23:01.996Z,92.74
2017-11-05T12:24:01.980Z,92.74
2017-11-05T12:25:01.643Z,93.13
2017-11-05T12:26:01.926Z,93.03
2017-11-05T12:27:01.586Z,93.03
2017-11-05T12:28:01.881Z,92.94
2017-11-05T12:29:01.551Z,92.74
2017-11-05T12:30:01.850Z,92.65
2017-11-05T12:31:01.823Z,92.65
2017-11-05T12:32:01.786Z,92.84
2017-11-05T12:33:01.764Z,93.13
2017-11-05T12:34:01.745Z,92.46
2017-11-05T12:35:01.720Z,92.55
2017-11-05T12:36:01.709Z,92.84
2017-11-05T12:37:01.670Z,92.74
2017-11-05T12:38:01.648Z,92.65
2017-11-05T12:39:01.644Z,92.84
2017-11-05T12:40:01.605Z,92.84
2017-11-05T12:41:01.581Z,93.22
2017-11-05T12:42:01.243Z,92.74
2017-11-05T12:43:01.541Z,93.22
2017-11-05T12:44:01.528Z,92.74
2017-11-05T12:45:01.487Z,92.84
2017-11-05T12:46:01.471Z,92.46
2017-11-05T12:47:01.446Z,92.55
2017-11-05T12:48:01.426Z,92.65
2017-11-05T12:49:01.406Z,92.46
2017-11-05T12:50:01.375Z,92.08
2017-11-05T12:51:01.363Z,92.27
2017-11-05T12:52:01.333Z,92.65
2017-11-05T12:53:01.306Z,92.46